Airfield :
LOGIN :

Register | Disclaimer

   EN    FR    IT 

 










Legend :    VFR   Marginal VFR   IFR   Intensive IFR   Very Intensive IFR
Visi :
Ceiling :
>= 8 km
>= 3000ft
5 to 8 km
1000 to 3000 ft
1500m to 5 km
500 to 1000 ft
800 to 1500m
200 to 500 ft
< 800m
< 200 ft
Symbols :   Thunderstorms  Fog  Heavy snow  Heavy precipitations  Wind > 20 kt
SIGMETs :     Misc.  Thunderstorms  Icing  Turbulence  Mountain Waves  Volcanic Ashes






- Airport Elevation : 154 ft
- IATA code : SZZ


EPSC - Szczecin Goleniow

CURRENT METAR :
  • 150300Z 09012KT 050V120 9999 OVC013 04/01 Q1012

EXPIRED METARs :
  • 150230Z 09010KT 060V120 9999 OVC013 04/01 Q1012
  • 150200Z 09012KT 9999 OVC013 04/01 Q1013
  • 150130Z 10011KT 9999 OVC013 03/01 Q1013
  • 150100Z 10012KT 9999 OVC011 04/01 Q1013
  • 150030Z 11009KT 9999 OVC012 03/01 Q1013

TAF TAF EPSC
Valid from the 15 at 00:00 until the 16 at 00:00 UTC


142330Z 1500/1524 10010KT 7000 BKN012 OVC015
TEMPO 1500/1509 3000 BR BKN004 BKN007
PROB40
TEMPO 1504/1508 1900 BR OVC001
TEMPO 1508/1518 13015G28KT BKN004 BKN007
TEMPO 1518/1524 2500 BR BKN003 BKN006



MET'MAP, your aeronautical weather chart ! - Copyright ORBIFLY December 2007 - Disclaimer

ORBIFLY MET'MAP TEAM :

Programming & Development : Alexandra Zaïnal
Concept & Development : Baudouin d'Aumeries
Co-Development & Prog : Marc-Olivier Méhu
Technical & hardware support : Manuel Goepfert

Contact : metmap@orbifly.com




SOURCES & CREDITS :

   NOAA